sensor_id;sensor_type;location;lat;lon;timestamp;temperature;humidity
22112;DHT22;11222;50.872;4.312;2023-01-01T00:01:15;16.00;99.90
22112;DHT22;11222;50.872;4.312;2023-01-01T00:03:41;16.00;99.90
22112;DHT22;11222;50.872;4.312;2023-01-01T00:06:12;16.00;99.90
22112;DHT22;11222;50.872;4.312;2023-01-01T00:08:38;16.00;99.90
22112;DHT22;11222;50.872;4.312;2023-01-01T00:11:06;16.00;99.90
22112;DHT22;11222;50.872;4.312;2023-01-01T00:13:32;15.90;99.90
22112;DHT22;11222;50.872;4.312;2023-01-01T00:16:10;15.90;99.90
22112;DHT22;11222;50.872;4.312;2023-01-01T00:18:36;15.80;99.90
22112;DHT22;11222;50.872;4.312;2023-01-01T00:21:08;15.80;99.90
22112;DHT22;11222;50.872;4.312;2023-01-01T00:23:34;15.70;99.90
22112;DHT22;11222;50.872;4.312;2023-01-01T00:26:00;15.70;99.90
22112;DHT22;11222;50.872;4.312;2023-01-01T00:28:26;15.70;99.90
22112;DHT22;11222;50.872;4.312;2023-01-01T00:30:52;15.70;99.90
22112;DHT22;11222;50.872;4.312;2023-01-01T00:33:18;15.70;99.90
22112;DHT22;11222;50.872;4.312;2023-01-01T00:35:44;15.70;99.90
22112;DHT22;11222;50.872;4.312;2023-01-01T00:38:09;15.60;99.90
22112;DHT22;11222;50.872;4.312;2023-01-01T00:40:35;15.60;99.90
22112;DHT22;11222;50.872;4.312;2023-01-01T00:43:01;15.60;99.90
22112;DHT22;11222;50.872;4.312;2023-01-01T00:45:26;15.60;99.90
22112;DHT22;11222;50.872;4.312;2023-01-01T00:47:53;15.60;99.90
22112;DHT22;11222;50.872;4.312;2023-01-01T00:50:20;15.60;99.90
22112;DHT22;11222;50.872;4.312;2023-01-01T00:52:46;15.60;99.90
22112;DHT22;11222;50.872;4.312;2023-01-01T00:55:13;15.60;99.90
22112;DHT22;11222;50.872;4.312;2023-01-01T00:57:39;15.50;99.90
22112;DHT22;11222;50.872;4.312;2023-01-01T01:00:06;15.50;99.90
22112;DHT22;11222;50.872;4.312;2023-01-01T01:02:32;15.50;99.90
22112;DHT22;11222;50.872;4.312;2023-01-01T01:04:57;15.50;99.90
22112;DHT22;11222;50.872;4.312;2023-01-01T01:07:23;15.50;99.90
22112;DHT22;11222;50.872;4.312;2023-01-01T01:09:49;15.50;99.90
22112;DHT22;11222;50.872;4.312;2023-01-01T01:12:14;15.50;99.90
22112;DHT22;11222;50.872;4.312;2023-01-01T01:14:40;15.50;99.90
22112;DHT22;11222;50.872;4.312;2023-01-01T01:17:06;15.50;99.90
22112;DHT22;11222;50.872;4.312;2023-01-01T01:19:31;15.50;99.90
22112;DHT22;11222;50.872;4.312;2023-01-01T01:21:57;15.40;99.90
22112;DHT22;11222;50.872;4.312;2023-01-01T01:24:23;15.50;99.90
22112;DHT22;11222;50.872;4.312;2023-01-01T01:26:48;15.50;99.90
22112;DHT22;11222;50.872;4.312;2023-01-01T01:29:14;15.50;99.90
22112;DHT22;11222;50.872;4.312;2023-01-01T01:31:40;15.40;99.90
22112;DHT22;11222;50.872;4.312;2023-01-01T01:34:05;15.50;99.90
22112;DHT22;11222;50.872;4.312;2023-01-01T01:36:33;15.50;99.90
22112;DHT22;11222;50.872;4.312;2023-01-01T01:38:58;15.50;99.90
22112;DHT22;11222;50.872;4.312;2023-01-01T01:41:25;15.50;99.90
22112;DHT22;11222;50.872;4.312;2023-01-01T01:44:42;15.50;99.90
22112;DHT22;11222;50.872;4.312;2023-01-01T01:46:45;15.50;99.90
22112;DHT22;11222;50.872;4.312;2023-01-01T01:49:18;15.50;99.90
22112;DHT22;11222;50.872;4.312;2023-01-01T01:51:46;15.50;99.90
22112;DHT22;11222;50.872;4.312;2023-01-01T01:54:18;15.50;99.90
22112;DHT22;11222;50.872;4.312;2023-01-01T01:56:58;15.50;99.90
22112;DHT22;11222;50.872;4.312;2023-01-01T01:59:29;15.50;99.90
22112;DHT22;11222;50.872;4.312;2023-01-01T02:01:56;15.50;99.90
22112;DHT22;11222;50.872;4.312;2023-01-01T02:04:23;15.50;99.90
22112;DHT22;11222;50.872;4.312;2023-01-01T02:06:49;15.50;99.90
22112;DHT22;11222;50.872;4.312;2023-01-01T02:09:16;15.50;99.90
22112;DHT22;11222;50.872;4.312;2023-01-01T02:11:41;15.40;99.90
22112;DHT22;11222;50.872;4.312;2023-01-01T02:14:07;15.40;99.90
22112;DHT22;11222;50.872;4.312;2023-01-01T02:16:38;15.40;99.90
22112;DHT22;11222;50.872;4.312;2023-01-01T02:19:34;15.40;99.90
22112;DHT22;11222;50.872;4.312;2023-01-01T02:27:31;15.30;99.90
22112;DHT22;11222;50.872;4.312;2023-01-01T02:30:00;15.20;99.90
22112;DHT22;11222;50.872;4.312;2023-01-01T02:32:33;15.20;99.90
22112;DHT22;11222;50.872;4.312;2023-01-01T02:35:06;15.20;99.90
22112;DHT22;11222;50.872;4.312;2023-01-01T02:37:56;15.20;99.90
22112;DHT22;11222;50.872;4.312;2023-01-01T02:40:24;15.20;99.90
22112;DHT22;11222;50.872;4.312;2023-01-01T02:42:52;15.10;99.90
22112;DHT22;11222;50.872;4.312;2023-01-01T02:45:18;15.10;99.90
22112;DHT22;11222;50.872;4.312;2023-01-01T02:47:44;15.10;99.90
22112;DHT22;11222;50.872;4.312;2023-01-01T02:50:18;15.10;99.90
22112;DHT22;11222;50.872;4.312;2023-01-01T02:55:57;15.10;99.90
22112;DHT22;11222;50.872;4.312;2023-01-01T02:58:51;15.10;99.90
22112;DHT22;11222;50.872;4.312;2023-01-01T03:02:07;15.10;99.90
22112;DHT22;11222;50.872;4.312;2023-01-01T03:10:23;15.10;99.90
22112;DHT22;11222;50.872;4.312;2023-01-01T03:12:58;15.10;99.90
22112;DHT22;11222;50.872;4.312;2023-01-01T03:15:39;15.10;99.90
22112;DHT22;11222;50.872;4.312;2023-01-01T03:18:17;15.10;99.90
22112;DHT22;11222;50.872;4.312;2023-01-01T03:20:48;15.10;99.90
22112;DHT22;11222;50.872;4.312;2023-01-01T03:23:21;15.10;99.90
22112;DHT22;11222;50.872;4.312;2023-01-01T03:25:50;15.10;99.90
22112;DHT22;11222;50.872;4.312;2023-01-01T03:28:24;15.10;99.90
22112;DHT22;11222;50.872;4.312;2023-01-01T03:30:52;15.00;99.90
22112;DHT22;11222;50.872;4.312;2023-01-01T03:33:39;15.00;99.90
22112;DHT22;11222;50.872;4.312;2023-01-01T03:38:39;14.90;99.90
22112;DHT22;11222;50.872;4.312;2023-01-01T03:41:19;14.80;99.90
22112;DHT22;11222;50.872;4.312;2023-01-01T03:46:25;14.60;99.90
22112;DHT22;11222;50.872;4.312;2023-01-01T03:48:53;14.60;99.90
22112;DHT22;11222;50.872;4.312;2023-01-01T03:52:42;14.50;99.90
22112;DHT22;11222;50.872;4.312;2023-01-01T03:57:31;14.40;99.90
22112;DHT22;11222;50.872;4.312;2023-01-01T04:00:19;14.30;99.90
22112;DHT22;11222;50.872;4.312;2023-01-01T04:02:53;14.30;99.90
22112;DHT22;11222;50.872;4.312;2023-01-01T04:05:21;14.30;99.90
22112;DHT22;11222;50.872;4.312;2023-01-01T04:07:48;14.30;99.90
22112;DHT22;11222;50.872;4.312;2023-01-01T04:10:15;14.30;99.90
22112;DHT22;11222;50.872;4.312;2023-01-01T04:12:54;14.30;99.90
22112;DHT22;11222;50.872;4.312;2023-01-01T04:15:23;14.30;99.90
22112;DHT22;11222;50.872;4.312;2023-01-01T04:17:50;14.30;99.90
22112;DHT22;11222;50.872;4.312;2023-01-01T04:20:16;14.30;99.90
22112;DHT22;11222;50.872;4.312;2023-01-01T04:22:42;14.40;99.90
22112;DHT22;11222;50.872;4.312;2023-01-01T04:25:09;14.40;99.90
22112;DHT22;11222;50.872;4.312;2023-01-01T04:27:35;14.40;99.90
22112;DHT22;11222;50.872;4.312;2023-01-01T04:30:03;14.40;99.90
22112;DHT22;11222;50.872;4.312;2023-01-01T04:32:29;14.40;99.90
22112;DHT22;11222;50.872;4.312;2023-01-01T04:34:55;14.40;99.90
22112;DHT22;11222;50.872;4.312;2023-01-01T04:37:20;14.40;99.90
22112;DHT22;11222;50.872;4.312;2023-01-01T04:39:46;14.40;99.90
22112;DHT22;11222;50.872;4.312;2023-01-01T04:42:12;14.40;99.90
22112;DHT22;11222;50.872;4.312;2023-01-01T04:44:37;14.40;99.90
22112;DHT22;11222;50.872;4.312;2023-01-01T04:47:04;14.40;99.90
22112;DHT22;11222;50.872;4.312;2023-01-01T04:49:29;14.40;99.90
22112;DHT22;11222;50.872;4.312;2023-01-01T04:51:55;14.40;99.90
22112;DHT22;11222;50.872;4.312;2023-01-01T04:54:20;14.40;99.90
22112;DHT22;11222;50.872;4.312;2023-01-01T04:56:46;14.40;99.90
22112;DHT22;11222;50.872;4.312;2023-01-01T04:59:12;14.40;99.90
22112;DHT22;11222;50.872;4.312;2023-01-01T05:01:37;14.40;99.90
22112;DHT22;11222;50.872;4.312;2023-01-01T05:04:03;14.40;99.90
22112;DHT22;11222;50.872;4.312;2023-01-01T05:06:29;14.50;99.90
22112;DHT22;11222;50.872;4.312;2023-01-01T05:08:56;14.40;99.90
22112;DHT22;11222;50.872;4.312;2023-01-01T05:11:29;14.50;99.90
22112;DHT22;11222;50.872;4.312;2023-01-01T05:13:58;14.40;99.90
22112;DHT22;11222;50.872;4.312;2023-01-01T05:16:26;14.50;99.90
22112;DHT22;11222;50.872;4.312;2023-01-01T05:18:52;14.50;99.90
22112;DHT22;11222;50.872;4.312;2023-01-01T05:21:20;14.50;99.90
22112;DHT22;11222;50.872;4.312;2023-01-01T05:23:46;14.50;99.90
22112;DHT22;11222;50.872;4.312;2023-01-01T05:26:17;14.50;99.90
22112;DHT22;11222;50.872;4.312;2023-01-01T05:28:44;14.50;99.90
22112;DHT22;11222;50.872;4.312;2023-01-01T05:31:14;14.50;99.90
22112;DHT22;11222;50.872;4.312;2023-01-01T05:33:41;14.50;99.90
22112;DHT22;11222;50.872;4.312;2023-01-01T05:36:09;14.60;99.90
22112;DHT22;11222;50.872;4.312;2023-01-01T05:38:35;14.50;99.90
22112;DHT22;11222;50.872;4.312;2023-01-01T05:41:05;14.50;99.90
22112;DHT22;11222;50.872;4.312;2023-01-01T05:43:32;14.50;99.90
22112;DHT22;11222;50.872;4.312;2023-01-01T05:46:02;14.40;99.90
22112;DHT22;11222;50.872;4.312;2023-01-01T05:48:28;14.40;99.90
22112;DHT22;11222;50.872;4.312;2023-01-01T05:51:01;14.40;99.90
22112;DHT22;11222;50.872;4.312;2023-01-01T05:53:28;14.40;99.90
22112;DHT22;11222;50.872;4.312;2023-01-01T05:55:54;14.40;99.90
22112;DHT22;11222;50.872;4.312;2023-01-01T05:58:19;14.30;99.90
22112;DHT22;11222;50.872;4.312;2023-01-01T06:00:45;14.40;99.90
22112;DHT22;11222;50.872;4.312;2023-01-01T06:03:11;14.30;99.90
22112;DHT22;11222;50.872;4.312;2023-01-01T06:05:37;14.30;99.90
22112;DHT22;11222;50.872;4.312;2023-01-01T06:08:04;14.30;99.90
22112;DHT22;11222;50.872;4.312;2023-01-01T06:10:30;14.30;99.90
22112;DHT22;11222;50.872;4.312;2023-01-01T06:12:55;14.30;99.90
22112;DHT22;11222;50.872;4.312;2023-01-01T06:15:27;14.30;99.90
22112;DHT22;11222;50.872;4.312;2023-01-01T06:17:53;14.40;99.90
22112;DHT22;11222;50.872;4.312;2023-01-01T06:20:19;14.30;99.90
22112;DHT22;11222;50.872;4.312;2023-01-01T06:22:45;14.30;99.90
22112;DHT22;11222;50.872;4.312;2023-01-01T06:25:11;14.30;99.90
22112;DHT22;11222;50.872;4.312;2023-01-01T06:27:37;14.30;99.90
22112;DHT22;11222;50.872;4.312;2023-01-01T06:30:06;14.30;99.90
22112;DHT22;11222;50.872;4.312;2023-01-01T06:32:33;14.20;99.90
22112;DHT22;11222;50.872;4.312;2023-01-01T06:34:58;14.30;99.90
22112;DHT22;11222;50.872;4.312;2023-01-01T06:37:24;14.20;99.90
22112;DHT22;11222;50.872;4.312;2023-01-01T06:39:51;14.20;99.90
22112;DHT22;11222;50.872;4.312;2023-01-01T06:42:17;14.30;99.90
22112;DHT22;11222;50.872;4.312;2023-01-01T06:44:43;14.30;99.90
22112;DHT22;11222;50.872;4.312;2023-01-01T06:47:08;14.20;99.90
22112;DHT22;11222;50.872;4.312;2023-01-01T06:49:34;14.20;99.90
22112;DHT22;11222;50.872;4.312;2023-01-01T06:51:59;14.20;99.90
22112;DHT22;11222;50.872;4.312;2023-01-01T06:54:25;14.30;99.90
22112;DHT22;11222;50.872;4.312;2023-01-01T06:56:51;14.20;99.90
22112;DHT22;11222;50.872;4.312;2023-01-01T06:59:17;14.10;99.90
22112;DHT22;11222;50.872;4.312;2023-01-01T07:01:42;14.10;99.90
22112;DHT22;11222;50.872;4.312;2023-01-01T07:04:13;14.10;99.90
22112;DHT22;11222;50.872;4.312;2023-01-01T07:06:39;14.10;99.90
22112;DHT22;11222;50.872;4.312;2023-01-01T07:09:06;14.00;99.90
22112;DHT22;11222;50.872;4.312;2023-01-01T07:11:33;14.00;99.90
22112;DHT22;11222;50.872;4.312;2023-01-01T07:13:58;14.00;99.90
22112;DHT22;11222;50.872;4.312;2023-01-01T07:16:25;13.90;99.90
22112;DHT22;11222;50.872;4.312;2023-01-01T07:18:51;13.90;99.90
22112;DHT22;11222;50.872;4.312;2023-01-01T07:21:31;13.90;99.90
22112;DHT22;11222;50.872;4.312;2023-01-01T07:24:00;13.90;99.90
22112;DHT22;11222;50.872;4.312;2023-01-01T07:26:26;13.90;99.90
22112;DHT22;11222;50.872;4.312;2023-01-01T07:28:52;13.90;99.90
22112;DHT22;11222;50.872;4.312;2023-01-01T07:31:18;13.90;99.90
22112;DHT22;11222;50.872;4.312;2023-01-01T07:33:44;13.90;99.90
22112;DHT22;11222;50.872;4.312;2023-01-01T07:36:10;13.80;99.90
22112;DHT22;11222;50.872;4.312;2023-01-01T07:38:35;13.80;99.90
22112;DHT22;11222;50.872;4.312;2023-01-01T07:41:01;13.80;99.90
22112;DHT22;11222;50.872;4.312;2023-01-01T07:43:27;13.80;99.90
22112;DHT22;11222;50.872;4.312;2023-01-01T07:45:52;13.70;99.90
22112;DHT22;11222;50.872;4.312;2023-01-01T07:48:18;13.80;99.90
22112;DHT22;11222;50.872;4.312;2023-01-01T07:50:44;13.70;99.90
22112;DHT22;11222;50.872;4.312;2023-01-01T07:53:09;13.70;99.90
22112;DHT22;11222;50.872;4.312;2023-01-01T07:55:35;13.70;99.90
22112;DHT22;11222;50.872;4.312;2023-01-01T07:58:01;13.70;99.90
22112;DHT22;11222;50.872;4.312;2023-01-01T08:00:27;13.70;99.90
22112;DHT22;11222;50.872;4.312;2023-01-01T08:02:53;13.70;99.90
22112;DHT22;11222;50.872;4.312;2023-01-01T08:05:19;13.70;99.90
22112;DHT22;11222;50.872;4.312;2023-01-01T08:07:47;13.70;99.90
22112;DHT22;11222;50.872;4.312;2023-01-01T08:10:13;13.70;99.90
22112;DHT22;11222;50.872;4.312;2023-01-01T08:12:39;13.70;99.90
22112;DHT22;11222;50.872;4.312;2023-01-01T08:15:05;13.60;99.90
22112;DHT22;11222;50.872;4.312;2023-01-01T08:17:31;13.60;99.90
22112;DHT22;11222;50.872;4.312;2023-01-01T08:19:57;13.60;99.90
22112;DHT22;11222;50.872;4.312;2023-01-01T08:22:23;13.60;99.90
22112;DHT22;11222;50.872;4.312;2023-01-01T08:24:48;13.60;99.90
22112;DHT22;11222;50.872;4.312;2023-01-01T08:27:15;13.60;99.90
22112;DHT22;11222;50.872;4.312;2023-01-01T08:29:41;13.60;99.90
22112;DHT22;11222;50.872;4.312;2023-01-01T08:32:07;13.60;99.90
22112;DHT22;11222;50.872;4.312;2023-01-01T08:34:33;13.60;99.90
22112;DHT22;11222;50.872;4.312;2023-01-01T08:36:59;13.60;99.90
22112;DHT22;11222;50.872;4.312;2023-01-01T08:39:25;13.60;99.90
22112;DHT22;11222;50.872;4.312;2023-01-01T08:41:50;13.60;99.90
22112;DHT22;11222;50.872;4.312;2023-01-01T08:44:16;13.60;99.90
22112;DHT22;11222;50.872;4.312;2023-01-01T08:46:42;13.70;99.90
22112;DHT22;11222;50.872;4.312;2023-01-01T08:49:07;13.80;99.90
22112;DHT22;11222;50.872;4.312;2023-01-01T08:51:33;13.70;99.90
22112;DHT22;11222;50.872;4.312;2023-01-01T08:53:59;13.80;99.90
22112;DHT22;11222;50.872;4.312;2023-01-01T08:56:24;13.80;99.90
22112;DHT22;11222;50.872;4.312;2023-01-01T08:58:50;13.80;99.90
22112;DHT22;11222;50.872;4.312;2023-01-01T09:01:16;13.70;99.90
22112;DHT22;11222;50.872;4.312;2023-01-01T09:03:42;13.70;99.90
22112;DHT22;11222;50.872;4.312;2023-01-01T09:06:07;13.70;99.90
22112;DHT22;11222;50.872;4.312;2023-01-01T09:08:33;13.70;99.90
22112;DHT22;11222;50.872;4.312;2023-01-01T09:11:01;13.70;99.90
22112;DHT22;11222;50.872;4.312;2023-01-01T09:13:27;13.80;99.90
22112;DHT22;11222;50.872;4.312;2023-01-01T09:15:53;13.80;99.90
22112;DHT22;11222;50.872;4.312;2023-01-01T09:18:19;13.80;99.90
22112;DHT22;11222;50.872;4.312;2023-01-01T09:20:45;13.80;99.90
22112;DHT22;11222;50.872;4.312;2023-01-01T09:23:12;13.80;99.90
22112;DHT22;11222;50.872;4.312;2023-01-01T09:25:38;13.90;99.90
22112;DHT22;11222;50.872;4.312;2023-01-01T09:28:06;14.00;99.90
22112;DHT22;11222;50.872;4.312;2023-01-01T09:30:33;14.00;99.90
22112;DHT22;11222;50.872;4.312;2023-01-01T09:32:59;14.00;99.90
22112;DHT22;11222;50.872;4.312;2023-01-01T09:35:25;14.10;99.90
22112;DHT22;11222;50.872;4.312;2023-01-01T09:37:51;14.10;99.90
22112;DHT22;11222;50.872;4.312;2023-01-01T09:45:54;14.10;99.90
22112;DHT22;11222;50.872;4.312;2023-01-01T09:48:20;14.00;99.90
22112;DHT22;11222;50.872;4.312;2023-01-01T09:50:48;14.00;99.90
22112;DHT22;11222;50.872;4.312;2023-01-01T09:53:22;14.00;99.90
22112;DHT22;11222;50.872;4.312;2023-01-01T09:55:55;14.00;99.90
22112;DHT22;11222;50.872;4.312;2023-01-01T09:58:27;14.10;99.90
22112;DHT22;11222;50.872;4.312;2023-01-01T10:01:26;14.10;99.90
22112;DHT22;11222;50.872;4.312;2023-01-01T10:03:53;14.20;99.90
22112;DHT22;11222;50.872;4.312;2023-01-01T10:06:33;14.10;99.90
22112;DHT22;11222;50.872;4.312;2023-01-01T10:09:10;14.10;99.90
22112;DHT22;11222;50.872;4.312;2023-01-01T10:11:49;14.10;99.90
22112;DHT22;11222;50.872;4.312;2023-01-01T10:14:36;14.20;99.90
22112;DHT22;11222;50.872;4.312;2023-01-01T10:19:57;14.30;99.90
22112;DHT22;11222;50.872;4.312;2023-01-01T10:22:41;14.20;99.90
22112;DHT22;11222;50.872;4.312;2023-01-01T10:25:14;14.20;99.90
22112;DHT22;11222;50.872;4.312;2023-01-01T10:27:52;14.20;99.90
22112;DHT22;11222;50.872;4.312;2023-01-01T10:30:23;14.30;99.90
22112;DHT22;11222;50.872;4.312;2023-01-01T10:32:54;14.30;99.90
22112;DHT22;11222;50.872;4.312;2023-01-01T10:35:33;14.30;99.90
22112;DHT22;11222;50.872;4.312;2023-01-01T10:38:01;14.40;99.90
22112;DHT22;11222;50.872;4.312;2023-01-01T10:40:28;14.40;99.90
22112;DHT22;11222;50.872;4.312;2023-01-01T10:42:56;14.50;99.90
22112;DHT22;11222;50.872;4.312;2023-01-01T10:45:43;14.50;99.90
22112;DHT22;11222;50.872;4.312;2023-01-01T10:50:50;14.50;99.90
22112;DHT22;11222;50.872;4.312;2023-01-01T10:53:26;14.60;99.90
22112;DHT22;11222;50.872;4.312;2023-01-01T11:01:05;14.50;99.90
22112;DHT22;11222;50.872;4.312;2023-01-01T11:03:31;14.60;99.90
22112;DHT22;11222;50.872;4.312;2023-01-01T11:08:40;14.70;99.90
22112;DHT22;11222;50.872;4.312;2023-01-01T11:11:24;14.80;99.90
22112;DHT22;11222;50.872;4.312;2023-01-01T11:13:53;14.80;99.90
22112;DHT22;11222;50.872;4.312;2023-01-01T11:16:19;14.80;99.90
22112;DHT22;11222;50.872;4.312;2023-01-01T11:18:46;14.80;99.90
22112;DHT22;11222;50.872;4.312;2023-01-01T11:21:20;14.80;99.90
22112;DHT22;11222;50.872;4.312;2023-01-01T11:23:46;14.90;99.90
22112;DHT22;11222;50.872;4.312;2023-01-01T11:28:57;14.70;99.90
22112;DHT22;11222;50.872;4.312;2023-01-01T11:31:29;14.80;99.90
22112;DHT22;11222;50.872;4.312;2023-01-01T11:33:58;14.80;99.90
22112;DHT22;11222;50.872;4.312;2023-01-01T11:36:30;14.70;99.90
22112;DHT22;11222;50.872;4.312;2023-01-01T11:39:32;14.80;99.90
22112;DHT22;11222;50.872;4.312;2023-01-01T11:41:53;14.70;99.90
22112;DHT22;11222;50.872;4.312;2023-01-01T11:44:35;14.70;99.90
22112;DHT22;11222;50.872;4.312;2023-01-01T11:47:04;14.70;99.90
22112;DHT22;11222;50.872;4.312;2023-01-01T11:49:30;14.80;99.90
22112;DHT22;11222;50.872;4.312;2023-01-01T11:51:57;14.80;99.90
22112;DHT22;11222;50.872;4.312;2023-01-01T11:54:32;14.90;99.90
22112;DHT22;11222;50.872;4.312;2023-01-01T11:57:09;14.90;99.90
22112;DHT22;11222;50.872;4.312;2023-01-01T11:59:44;14.80;99.90
22112;DHT22;11222;50.872;4.312;2023-01-01T12:02:12;14.80;99.90
22112;DHT22;11222;50.872;4.312;2023-01-01T12:04:47;14.80;99.90
22112;DHT22;11222;50.872;4.312;2023-01-01T12:07:34;14.80;99.90
22112;DHT22;11222;50.872;4.312;2023-01-01T12:13:05;14.70;99.90
22112;DHT22;11222;50.872;4.312;2023-01-01T12:15:38;14.70;99.90
22112;DHT22;11222;50.872;4.312;2023-01-01T12:21:39;14.80;99.90
22112;DHT22;11222;50.872;4.312;2023-01-01T12:23:58;14.70;99.90
22112;DHT22;11222;50.872;4.312;2023-01-01T12:29:39;14.60;99.90
22112;DHT22;11222;50.872;4.312;2023-01-01T12:40:41;14.50;99.90
22112;DHT22;11222;50.872;4.312;2023-01-01T12:43:39;14.50;99.90
22112;DHT22;11222;50.872;4.312;2023-01-01T12:48:59;14.50;99.90
22112;DHT22;11222;50.872;4.312;2023-01-01T13:00:03;14.50;99.90
22112;DHT22;11222;50.872;4.312;2023-01-01T13:02:45;14.50;99.90
22112;DHT22;11222;50.872;4.312;2023-01-01T13:05:22;14.50;99.90
22112;DHT22;11222;50.872;4.312;2023-01-01T13:07:51;14.50;99.90
22112;DHT22;11222;50.872;4.312;2023-01-01T13:10:38;14.40;99.90
22112;DHT22;11222;50.872;4.312;2023-01-01T13:13:05;14.40;99.90
22112;DHT22;11222;50.872;4.312;2023-01-01T13:20:45;14.50;99.90
22112;DHT22;11222;50.872;4.312;2023-01-01T13:45:35;14.40;99.90
22112;DHT22;11222;50.872;4.312;2023-01-01T13:56:42;14.20;99.90
22112;DHT22;11222;50.872;4.312;2023-01-01T14:07:27;14.20;99.90
22112;DHT22;11222;50.872;4.312;2023-01-01T14:10:21;14.20;99.90
22112;DHT22;11222;50.872;4.312;2023-01-01T14:12:48;14.20;99.90
22112;DHT22;11222;50.872;4.312;2023-01-01T14:15:56;14.10;99.90
22112;DHT22;11222;50.872;4.312;2023-01-01T14:18:21;14.10;99.90
22112;DHT22;11222;50.872;4.312;2023-01-01T14:20:53;14.00;99.90
22112;DHT22;11222;50.872;4.312;2023-01-01T14:23:34;14.00;99.90
22112;DHT22;11222;50.872;4.312;2023-01-01T14:26:05;14.00;99.90
22112;DHT22;11222;50.872;4.312;2023-01-01T14:28:32;14.00;99.90
22112;DHT22;11222;50.872;4.312;2023-01-01T14:31:00;14.00;99.90
22112;DHT22;11222;50.872;4.312;2023-01-01T14:33:29;14.00;99.90
22112;DHT22;11222;50.872;4.312;2023-01-01T14:35:58;13.90;99.90
22112;DHT22;11222;50.872;4.312;2023-01-01T14:38:34;13.90;99.90
22112;DHT22;11222;50.872;4.312;2023-01-01T14:41:28;13.80;99.90
22112;DHT22;11222;50.872;4.312;2023-01-01T14:44:13;13.80;99.90
22112;DHT22;11222;50.872;4.312;2023-01-01T14:46:40;13.80;99.90
22112;DHT22;11222;50.872;4.312;2023-01-01T14:49:09;13.80;99.90
22112;DHT22;11222;50.872;4.312;2023-01-01T14:51:37;13.80;99.90
22112;DHT22;11222;50.872;4.312;2023-01-01T14:54:05;13.90;99.90
22112;DHT22;11222;50.872;4.312;2023-01-01T14:56:36;13.90;99.90
22112;DHT22;11222;50.872;4.312;2023-01-01T14:59:10;13.80;99.90
22112;DHT22;11222;50.872;4.312;2023-01-01T15:01:37;13.80;99.90
22112;DHT22;11222;50.872;4.312;2023-01-01T15:04:33;13.90;99.90
22112;DHT22;11222;50.872;4.312;2023-01-01T15:07:00;13.90;99.90
22112;DHT22;11222;50.872;4.312;2023-01-01T15:09:26;13.80;99.90
22112;DHT22;11222;50.872;4.312;2023-01-01T15:11:54;13.80;99.90
22112;DHT22;11222;50.872;4.312;2023-01-01T15:14:37;13.80;99.90
22112;DHT22;11222;50.872;4.312;2023-01-01T15:17:04;13.80;99.90
22112;DHT22;11222;50.872;4.312;2023-01-01T15:19:30;13.70;99.90
22112;DHT22;11222;50.872;4.312;2023-01-01T15:21:57;13.70;99.90
22112;DHT22;11222;50.872;4.312;2023-01-01T15:24:23;13.70;99.90
22112;DHT22;11222;50.872;4.312;2023-01-01T15:26:55;13.70;99.90
22112;DHT22;11222;50.872;4.312;2023-01-01T15:29:41;13.60;99.90
22112;DHT22;11222;50.872;4.312;2023-01-01T15:32:12;13.50;99.90
22112;DHT22;11222;50.872;4.312;2023-01-01T15:34:49;13.50;99.90
22112;DHT22;11222;50.872;4.312;2023-01-01T15:42:40;13.60;99.90
22112;DHT22;11222;50.872;4.312;2023-01-01T15:45:13;13.50;99.90
22112;DHT22;11222;50.872;4.312;2023-01-01T15:47:40;13.50;99.90
22112;DHT22;11222;50.872;4.312;2023-01-01T15:50:08;13.50;99.90
22112;DHT22;11222;50.872;4.312;2023-01-01T15:52:34;13.50;99.90
22112;DHT22;11222;50.872;4.312;2023-01-01T15:55:00;13.60;99.90
22112;DHT22;11222;50.872;4.312;2023-01-01T15:57:27;13.50;99.90
22112;DHT22;11222;50.872;4.312;2023-01-01T15:59:53;13.50;99.90
22112;DHT22;11222;50.872;4.312;2023-01-01T16:02:31;13.40;99.90
22112;DHT22;11222;50.872;4.312;2023-01-01T16:04:58;13.40;99.90
22112;DHT22;11222;50.872;4.312;2023-01-01T16:07:25;13.40;99.90
22112;DHT22;11222;50.872;4.312;2023-01-01T16:09:52;13.40;99.90
22112;DHT22;11222;50.872;4.312;2023-01-01T16:12:19;13.30;99.90
22112;DHT22;11222;50.872;4.312;2023-01-01T16:14:45;13.30;99.90
22112;DHT22;11222;50.872;4.312;2023-01-01T16:17:20;13.30;99.90
22112;DHT22;11222;50.872;4.312;2023-01-01T16:19:45;13.30;99.90
22112;DHT22;11222;50.872;4.312;2023-01-01T16:22:13;13.40;99.90
22112;DHT22;11222;50.872;4.312;2023-01-01T16:24:40;13.40;99.90
22112;DHT22;11222;50.872;4.312;2023-01-01T16:27:06;13.50;99.90
22112;DHT22;11222;50.872;4.312;2023-01-01T16:29:32;13.60;99.90
22112;DHT22;11222;50.872;4.312;2023-01-01T16:31:57;13.60;99.90
22112;DHT22;11222;50.872;4.312;2023-01-01T16:34:23;13.40;99.90
22112;DHT22;11222;50.872;4.312;2023-01-01T16:36:49;13.40;99.90
22112;DHT22;11222;50.872;4.312;2023-01-01T16:39:14;13.50;99.90
22112;DHT22;11222;50.872;4.312;2023-01-01T16:41:41;13.50;99.90
22112;DHT22;11222;50.872;4.312;2023-01-01T16:44:11;13.40;99.90
22112;DHT22;11222;50.872;4.312;2023-01-01T16:46:37;13.30;99.90
22112;DHT22;11222;50.872;4.312;2023-01-01T16:49:03;13.20;99.90
22112;DHT22;11222;50.872;4.312;2023-01-01T16:51:30;13.20;99.90
22112;DHT22;11222;50.872;4.312;2023-01-01T16:53:56;13.10;99.90
22112;DHT22;11222;50.872;4.312;2023-01-01T16:56:22;13.10;99.90
22112;DHT22;11222;50.872;4.312;2023-01-01T16:58:47;13.10;99.90
22112;DHT22;11222;50.872;4.312;2023-01-01T17:01:13;13.00;99.90
22112;DHT22;11222;50.872;4.312;2023-01-01T17:03:39;13.00;99.90
22112;DHT22;11222;50.872;4.312;2023-01-01T17:06:06;13.00;99.90
22112;DHT22;11222;50.872;4.312;2023-01-01T17:08:33;13.10;99.90
22112;DHT22;11222;50.872;4.312;2023-01-01T17:11:10;13.10;99.90
22112;DHT22;11222;50.872;4.312;2023-01-01T17:13:39;13.00;99.90
22112;DHT22;11222;50.872;4.312;2023-01-01T17:16:05;13.00;99.90
22112;DHT22;11222;50.872;4.312;2023-01-01T17:18:31;12.90;99.90
22112;DHT22;11222;50.872;4.312;2023-01-01T17:21:05;12.80;99.90
22112;DHT22;11222;50.872;4.312;2023-01-01T17:23:38;12.80;99.90
22112;DHT22;11222;50.872;4.312;2023-01-01T17:26:19;12.80;99.90
22112;DHT22;11222;50.872;4.312;2023-01-01T17:28:46;12.80;99.90
22112;DHT22;11222;50.872;4.312;2023-01-01T17:31:14;12.80;99.90
22112;DHT22;11222;50.872;4.312;2023-01-01T17:33:41;12.80;99.90
22112;DHT22;11222;50.872;4.312;2023-01-01T17:36:08;12.80;99.90
22112;DHT22;11222;50.872;4.312;2023-01-01T17:38:34;12.90;99.90
22112;DHT22;11222;50.872;4.312;2023-01-01T17:41:04;12.90;99.90
22112;DHT22;11222;50.872;4.312;2023-01-01T17:43:31;12.90;99.90
22112;DHT22;11222;50.872;4.312;2023-01-01T17:46:04;12.50;99.90
22112;DHT22;11222;50.872;4.312;2023-01-01T17:48:31;12.60;99.90